Time;durP1;ratioP1;P1;durP2;ratioP2;P2;SDS_P1;SDS_P2;PMS_P1;PMS_P2;Temp;Humidity;BMP_temperature;BMP_pressure;BME280_temperature;BME280_humidity;BME280_pressure;Samples;Min_cycle;Max_cycle;Signal;HPM_P1;HPM_P2
2022/04/05 00:00:17;;;;;;;8.75;1.75;;;7.20;99.90;;;;;;5115955;28;20114;-81
2022/04/05 00:02:43;;;;;;;7.35;2.42;;;7.20;99.90;;;;;;5122645;28;20051;-81
2022/04/05 00:05:08;;;;;;;4.80;1.47;;;7.10;99.90;;;;;;5124612;28;20035;-81
2022/04/05 00:07:34;;;;;;;8.35;1.90;;;7.20;99.90;;;;;;5122754;28;20049;-80
2022/04/05 00:10:00;;;;;;;8.63;1.73;;;7.30;99.90;;;;;;5121950;28;20390;-80
2022/04/05 00:12:26;;;;;;;11.48;1.98;;;7.20;99.90;;;;;;5103590;28;20047;-80
2022/04/05 00:14:52;;;;;;;7.05;1.25;;;7.10;99.90;;;;;;5117626;27;20039;-80
2022/04/05 00:17:18;;;;;;;8.05;1.65;;;7.10;99.90;;;;;;5106204;28;20036;-80
2022/04/05 00:19:44;;;;;;;6.45;1.52;;;7.10;99.90;;;;;;5119093;27;20040;-81
2022/04/05 00:22:09;;;;;;;6.85;1.42;;;7.10;99.90;;;;;;5127211;27;20089;-81
2022/04/05 00:24:35;;;;;;;6.13;1.92;;;7.10;99.90;;;;;;5124519;27;20044;-81
2022/04/05 00:27:01;;;;;;;9.82;1.45;;;7.10;99.90;;;;;;5107544;28;20039;-81
2022/04/05 00:29:27;;;;;;;11.03;1.60;;;7.10;99.90;;;;;;5125655;27;20058;-81
2022/04/05 00:31:53;;;;;;;13.10;1.70;;;7.10;99.90;;;;;;5131516;27;20280;-81
2022/04/05 00:34:19;;;;;;;9.43;1.67;;;7.00;99.90;;;;;;5118477;27;20043;-80
2022/04/05 00:36:45;;;;;;;7.85;1.40;;;7.00;99.90;;;;;;5119612;27;20046;-81
2022/04/05 00:39:11;;;;;;;8.30;1.83;;;7.10;99.90;;;;;;5126538;27;20043;-81
2022/04/05 00:41:38;;;;;;;11.05;1.55;;;7.10;99.90;;;;;;5098164;27;20040;-81
2022/04/05 00:44:04;;;;;;;5.85;1.35;;;7.10;99.90;;;;;;5128364;27;20035;-80
2022/04/05 00:46:30;;;;;;;8.57;1.77;;;7.10;99.90;;;;;;5126205;27;20092;-80
2022/04/05 00:48:59;;;;;;;;;;;7.00;99.90;;;;;;5102175;28;20482;-80
2022/04/05 00:51:26;;;;;;;7.80;1.38;;;7.00;99.90;;;;;;5125403;27;19915;-80
2022/04/05 00:53:53;;;;;;;;;;;7.60;99.90;;;;;;5103948;28;20480;-80
2022/04/05 00:56:20;;;;;;;11.82;1.58;;;7.10;99.90;;;;;;5122847;27;19951;-81
2022/04/05 00:58:52;;;;;;;9.10;1.80;;;7.00;99.90;;;;;;5109292;27;20417;-81
2022/04/05 01:01:19;;;;;;;8.88;1.63;;;7.00;99.90;;;;;;5106836;27;20050;-80
2022/04/05 01:03:50;;;;;;;9.93;1.40;;;7.00;99.90;;;;;;5123435;27;20414;-80
2022/04/05 01:06:18;;;;;;;7.57;1.50;;;7.00;99.90;;;;;;5123668;27;20044;-80
2022/04/05 01:08:48;;;;;;;8.73;1.52;;;6.90;99.90;;;;;;5122922;27;20047;-80
2022/04/05 01:11:14;;;;;;;9.68;1.63;;;7.00;99.90;;;;;;5127741;27;20035;-80
2022/04/05 01:13:40;;;;;;;8.05;1.85;;;7.00;99.90;;;;;;5108815;27;20096;-80
2022/04/05 01:16:06;;;;;;;11.07;2.15;;;6.90;99.90;;;;;;5100852;28;20043;-81
2022/04/05 01:18:33;;;;;;;7.90;1.85;;;7.00;99.90;;;;;;5127776;27;20054;-81
2022/04/05 01:20:59;;;;;;;8.93;1.83;;;7.00;99.90;;;;;;5105428;27;20047;-80
2022/04/05 01:23:24;;;;;;;10.05;2.20;;;7.00;99.90;;;;;;5120950;27;20039;-81
2022/04/05 01:25:51;;;;;;;10.85;1.80;;;6.90;99.90;;;;;;5122890;27;20377;-81
2022/04/05 01:28:17;;;;;;;7.95;1.80;;;6.90;99.90;;;;;;5120354;27;20462;-81
2022/04/05 01:30:43;;;;;;;;;;;7.00;99.90;;;;;;5115878;27;20633;-81
2022/04/05 01:33:09;;;;;;;7.53;1.88;;;6.90;99.90;;;;;;5129681;27;19915;-81
2022/04/05 01:35:35;;;;;;;10.50;1.77;;;7.00;99.90;;;;;;5101047;27;20039;-81
2022/04/05 01:38:04;;;;;;;11.60;1.80;;;6.90;99.90;;;;;;5117214;27;20556;-81
2022/04/05 01:40:30;;;;;;;8.13;1.50;;;6.90;99.90;;;;;;5103258;27;20585;-81
2022/04/05 01:42:56;;;;;;;7.22;1.85;;;7.20;99.90;;;;;;5124178;27;20050;-81
2022/04/05 01:45:22;;;;;;;9.45;1.50;;;7.00;99.90;;;;;;5112316;28;20039;-81
2022/04/05 01:47:47;;;;;;;8.20;1.60;;;7.00;99.90;;;;;;5104203;27;20357;-80
2022/04/05 01:50:13;;;;;;;13.30;2.25;;;7.00;99.90;;;;;;5121976;27;20047;-80
2022/04/05 01:52:39;;;;;;;12.10;2.08;;;7.00;99.90;;;;;;5098370;27;20035;-81
2022/04/05 01:55:09;;;;;;;9.27;1.90;;;6.90;99.90;;;;;;5105946;27;20035;-81
2022/04/05 01:57:35;;;;;;;9.70;1.90;;;6.90;99.90;;;;;;5109658;27;20047;-81
2022/04/05 02:00:02;;;;;;;9.77;1.77;;;6.90;99.90;;;;;;5101745;28;20032;-80
2022/04/05 02:02:28;;;;;;;8.82;1.92;;;6.90;99.90;;;;;;5118819;27;20040;-81
2022/04/05 02:04:54;;;;;;;11.57;2.40;;;6.90;99.90;;;;;;5122812;27;20043;-81
2022/04/05 02:07:20;;;;;;;13.32;2.47;;;6.80;99.90;;;;;;5109804;27;20075;-81
2022/04/05 02:09:48;;;;;;;11.00;2.00;;;6.90;99.90;;;;;;5118354;27;20070;-81
2022/04/05 02:12:15;;;;;;;12.27;2.55;;;6.90;99.90;;;;;;5121427;27;20068;-82
2022/04/05 02:14:41;;;;;;;15.95;2.03;;;7.00;99.90;;;;;;5099670;28;20031;-82
2022/04/05 02:17:07;;;;;;;12.13;1.90;;;6.90;99.90;;;;;;5121365;27;20080;-81
2022/04/05 02:19:34;;;;;;;18.77;2.70;;;6.80;99.90;;;;;;5119057;27;20047;-81
2022/04/05 02:22:00;;;;;;;7.90;2.17;;;6.80;99.90;;;;;;5111757;27;20426;-80
2022/04/05 02:24:26;;;;;;;20.25;3.60;;;6.80;99.90;;;;;;5121107;27;20034;-80
2022/04/05 02:26:51;;;;;;;12.18;2.22;;;6.90;99.90;;;;;;5112849;27;20035;-81
2022/04/05 02:29:17;;;;;;;15.27;2.40;;;6.90;99.90;;;;;;5097764;27;20037;-81
2022/04/05 02:31:43;;;;;;;16.98;2.20;;;6.90;99.90;;;;;;5118694;27;20282;-81
2022/04/05 02:34:10;;;;;;;12.90;2.40;;;6.90;99.90;;;;;;5131275;27;20069;-81
2022/04/05 02:36:35;;;;;;;13.43;2.05;;;6.80;99.90;;;;;;5116548;27;20077;-81
2022/04/05 02:39:01;;;;;;;14.95;2.65;;;6.90;99.90;;;;;;5121214;27;20066;-80
2022/04/05 02:41:27;;;;;;;13.57;1.95;;;7.00;99.90;;;;;;5103377;27;20114;-81
2022/04/05 02:43:53;;;;;;;16.08;2.25;;;6.90;99.90;;;;;;5102116;27;20038;-80
2022/04/05 02:46:19;;;;;;;22.17;2.75;;;6.90;99.90;;;;;;5121374;27;20387;-81
2022/04/05 02:48:46;;;;;;;15.93;3.13;;;6.90;99.90;;;;;;5101372;27;20096;-81
2022/04/05 02:51:16;;;;;;;16.27;2.63;;;7.00;99.90;;;;;;5100588;27;20437;-81
2022/04/05 02:53:42;;;;;;;22.05;2.85;;;7.20;99.90;;;;;;5120235;27;20061;-81
2022/04/05 02:56:09;;;;;;;16.33;2.67;;;6.90;99.90;;;;;;5123545;27;20486;-81
2022/04/05 02:58:38;;;;;;;20.63;2.83;;;6.90;99.90;;;;;;5106760;27;20039;-81
2022/04/05 03:01:04;;;;;;;17.75;3.13;;;6.80;99.90;;;;;;5099357;28;20087;-82
2022/04/05 03:03:30;;;;;;;20.88;2.70;;;6.80;99.90;;;;;;5098717;28;20043;-82
2022/04/05 03:05:56;;;;;;;17.83;2.65;;;6.90;99.90;;;;;;5097546;28;20042;-82
2022/04/05 03:08:22;;;;;;;19.73;3.07;;;6.90;99.90;;;;;;5104397;28;20039;-81
2022/04/05 03:10:48;;;;;;;13.50;2.50;;;6.80;99.90;;;;;;5122600;27;20617;-80
2022/04/05 03:13:14;;;;;;;17.05;2.60;;;7.00;99.90;;;;;;5115007;27;20281;-80
2022/04/05 03:15:40;;;;;;;11.82;2.00;;;6.90;99.90;;;;;;5121460;27;20044;-80
2022/04/05 03:18:06;;;;;;;13.52;1.75;;;6.80;99.90;;;;;;5123361;27;20039;-80
2022/04/05 03:20:32;;;;;;;17.50;2.65;;;6.80;99.90;;;;;;5096975;28;20047;-82
2022/04/05 03:23:00;;;;;;;18.92;2.38;;;6.70;99.90;;;;;;5105328;27;20053;-81
2022/04/05 03:25:29;;;;;;;14.32;2.40;;;6.70;99.90;;;;;;5115428;27;20031;-82
2022/04/05 03:27:55;;;;;;;13.48;2.15;;;6.70;99.90;;;;;;5125480;27;20388;-81
2022/04/05 03:30:22;;;;;;;15.75;2.35;;;6.70;99.90;;;;;;5101863;28;20036;-82
2022/04/05 03:32:49;;;;;;;13.95;2.33;;;6.60;99.90;;;;;;5117036;28;20108;-82
2022/04/05 03:35:15;;;;;;;14.20;2.13;;;6.70;99.90;;;;;;5121335;28;20078;-82
2022/04/05 03:37:41;;;;;;;17.20;2.25;;;6.60;99.90;;;;;;5111839;28;20043;-80
2022/04/05 03:40:08;;;;;;;16.95;2.28;;;6.70;99.90;;;;;;5107397;28;20051;-81
2022/04/05 03:42:35;;;;;;;14.00;2.25;;;6.70;99.90;;;;;;5100279;28;20133;-81
2022/04/05 03:45:01;;;;;;;16.42;2.35;;;6.70;99.90;;;;;;5118193;28;20482;-80
2022/04/05 03:47:27;;;;;;;17.15;2.70;;;6.60;99.90;;;;;;5119488;28;20031;-80
2022/04/05 03:49:53;;;;;;;14.88;3.22;;;6.60;99.90;;;;;;5122184;28;20498;-81
2022/04/05 03:52:20;;;;;;;18.95;2.72;;;6.60;99.90;;;;;;5125252;27;20027;-80
2022/04/05 03:54:46;;;;;;;21.40;2.40;;;6.60;99.90;;;;;;5122412;27;20084;-80
2022/04/05 03:57:12;;;;;;;18.77;2.50;;;6.60;99.90;;;;;;5104891;27;20034;-80
2022/04/05 03:59:37;;;;;;;17.33;2.78;;;6.70;99.90;;;;;;5123107;27;20035;-81
2022/04/05 04:02:04;;;;;;;23.17;2.73;;;7.00;99.90;;;;;;5123762;27;20053;-81
2022/04/05 04:04:30;;;;;;;18.02;2.53;;;6.60;99.90;;;;;;5122514;27;20039;-80
2022/04/05 04:06:56;;;;;;;17.77;2.80;;;6.60;99.90;;;;;;5127969;27;20340;-81
2022/04/05 04:09:22;;;;;;;13.68;2.28;;;6.60;99.90;;;;;;5128924;27;20036;-81
2022/04/05 04:11:48;;;;;;;10.95;1.92;;;6.70;99.90;;;;;;5129059;27;20047;-81
2022/04/05 04:14:14;;;;;;;15.25;2.17;;;6.70;99.90;;;;;;5116481;27;20394;-81
2022/04/05 04:16:40;;;;;;;12.73;1.95;;;7.10;99.90;;;;;;5128653;27;20039;-78
2022/04/05 04:19:05;;;;;;;15.77;2.45;;;6.60;99.90;;;;;;5116908;27;20050;-82
2022/04/05 04:21:31;;;;;;;14.23;2.30;;;6.60;99.90;;;;;;5116588;27;20062;-81
2022/04/05 04:23:57;;;;;;;12.70;2.05;;;6.60;99.90;;;;;;5118618;27;20047;-82
2022/04/05 04:26:23;;;;;;;15.63;2.50;;;6.60;99.90;;;;;;5104018;27;20084;-80
2022/04/05 04:28:51;;;;;;;19.85;2.28;;;6.60;99.90;;;;;;5104331;28;20490;-81
2022/04/05 04:31:17;;;;;;;13.27;2.17;;;6.60;99.90;;;;;;5125985;27;20095;-80
2022/04/05 04:33:43;;;;;;;11.05;2.05;;;6.50;99.90;;;;;;5129116;27;20066;-79
2022/04/05 04:36:09;;;;;;;11.98;2.17;;;6.60;99.90;;;;;;5126121;27;20073;-79
2022/04/05 04:38:35;;;;;;;14.25;2.22;;;6.80;99.90;;;;;;5121006;27;20558;-79
2022/04/05 04:41:00;;;;;;;17.20;2.70;;;6.60;99.90;;;;;;5128870;27;20118;-79
2022/04/05 04:43:27;;;;;;;15.70;2.47;;;6.60;99.90;;;;;;5121999;27;20383;-79
2022/04/05 04:45:54;;;;;;;15.27;1.90;;;6.60;99.90;;;;;;5115623;27;20217;-78
2022/04/05 04:48:20;;;;;;;18.58;3.13;;;6.60;99.90;;;;;;5109130;27;20490;-79
2022/04/05 04:50:50;;;;;;;14.45;2.38;;;6.60;99.90;;;;;;5127051;27;20035;-79
2022/04/05 04:53:16;;;;;;;19.92;2.30;;;6.60;99.90;;;;;;5095503;28;20119;-79
2022/04/05 04:55:42;;;;;;;17.67;2.10;;;6.50;99.90;;;;;;5118934;27;20027;-80
2022/04/05 04:58:08;;;;;;;13.18;2.25;;;6.60;99.90;;;;;;5117391;27;20034;-77
2022/04/05 05:00:33;;;;;;;14.68;2.22;;;6.60;99.90;;;;;;5125440;27;20070;-79
2022/04/05 05:02:59;;;;;;;14.25;1.67;;;6.50;99.90;;;;;;5112638;27;20035;-81
2022/04/05 05:05:25;;;;;;;14.55;2.28;;;6.50;99.90;;;;;;5083815;27;20110;-78
2022/04/05 05:07:52;;;;;;;14.32;2.00;;;6.50;99.90;;;;;;5114311;27;20118;-80
2022/04/05 05:10:19;;;;;;;14.15;1.88;;;6.60;99.90;;;;;;5113355;27;20122;-80
2022/04/05 05:12:46;;;;;;;14.18;2.15;;;6.50;99.90;;;;;;5108446;28;20429;-80
2022/04/05 05:15:21;;;;;;;15.07;2.85;;;6.50;99.90;;;;;;5114446;27;20130;-80
2022/04/05 05:17:47;;;;;;;13.40;2.20;;;6.50;99.90;;;;;;5116449;27;20031;-80
2022/04/05 05:20:14;;;;;;;10.07;2.33;;;6.50;99.90;;;;;;5123244;27;20491;-80
2022/04/05 05:22:40;;;;;;;12.73;2.28;;;6.40;99.90;;;;;;5117966;27;20051;-79
2022/04/05 05:25:07;;;;;;;10.32;1.90;;;6.50;99.90;;;;;;5109560;27;20044;-79
2022/04/05 05:27:33;;;;;;;13.30;2.25;;;6.50;99.90;;;;;;5107107;27;20277;-79
2022/04/05 05:30:00;;;;;;;15.13;2.00;;;6.50;99.90;;;;;;5094610;28;20417;-79
2022/04/05 05:32:26;;;;;;;13.70;1.73;;;6.50;99.90;;;;;;5124209;27;20587;-79
2022/04/05 05:34:51;;;;;;;17.08;1.92;;;6.60;99.90;;;;;;5121773;27;20034;-78
2022/04/05 05:37:17;;;;;;;15.53;2.00;;;6.60;99.90;;;;;;5119261;27;20380;-80
2022/04/05 05:39:43;;;;;;;15.20;2.30;;;6.60;99.90;;;;;;5102487;27;20331;-79
2022/04/05 05:42:09;;;;;;;11.05;1.85;;;6.60;99.90;;;;;;5116183;27;20071;-79
2022/04/05 05:44:35;;;;;;;13.70;2.50;;;6.60;99.90;;;;;;5091769;28;20495;-79
2022/04/05 05:47:03;;;;;;;;;;;6.70;99.90;;;;;;5122822;27;20038;-80
2022/04/05 05:49:29;;;;;;;10.77;2.03;;;6.70;99.90;;;;;;5116844;27;19923;-79
2022/04/05 05:51:55;;;;;;;12.50;2.67;;;6.70;99.90;;;;;;5125778;27;20469;-79
2022/04/05 05:54:21;;;;;;;14.75;2.75;;;6.70;99.90;;;;;;5120447;27;20055;-79
2022/04/05 05:56:47;;;;;;;16.50;2.45;;;6.80;99.90;;;;;;5116912;27;20142;-79
2022/04/05 05:59:12;;;;;;;16.88;2.33;;;6.80;99.90;;;;;;5118077;27;20047;-79
2022/04/05 06:01:38;;;;;;;13.67;2.57;;;6.80;99.90;;;;;;5084840;27;20054;-80
2022/04/05 06:04:04;;;;;;;15.45;2.70;;;6.90;99.90;;;;;;5103541;27;21195;-80
2022/04/05 06:06:30;;;;;;;14.05;2.50;;;6.90;99.90;;;;;;5104643;27;20111;-80
2022/04/05 06:08:56;;;;;;;19.73;2.73;;;6.90;99.90;;;;;;5122827;27;20038;-79
2022/04/05 06:11:22;;;;;;;15.27;2.75;;;6.90;99.90;;;;;;5109335;27;20637;-80
2022/04/05 06:13:49;;;;;;;12.18;2.33;;;6.90;99.90;;;;;;5119759;27;20046;-79
2022/04/05 06:16:15;;;;;;;9.98;2.10;;;6.90;99.90;;;;;;5117831;27;20086;-79
2022/04/05 06:18:42;;;;;;;16.55;2.50;;;6.90;99.90;;;;;;5082304;28;20047;-78
2022/04/05 06:21:08;;;;;;;13.43;2.22;;;7.00;99.90;;;;;;5101805;27;20130;-78
2022/04/05 06:23:34;;;;;;;12.40;2.10;;;7.00;99.90;;;;;;5096291;27;20054;-79
2022/04/05 06:26:00;;;;;;;14.70;2.97;;;7.00;99.90;;;;;;5091282;28;20031;-78
2022/04/05 06:28:26;;;;;;;14.93;2.17;;;7.10;99.90;;;;;;5113342;27;20106;-79
2022/04/05 06:30:52;;;;;;;14.68;2.58;;;7.10;99.90;;;;;;5099418;27;20051;-78
2022/04/05 06:33:21;;;;;;;10.93;1.90;;;7.10;99.90;;;;;;5114229;27;20115;-79
2022/04/05 06:35:50;;;;;;;8.98;1.58;;;7.10;99.90;;;;;;5110787;27;20054;-80
2022/04/05 06:38:15;;;;;;;10.32;2.00;;;7.40;99.90;;;;;;5112328;27;20055;-80
2022/04/05 06:40:43;;;;;;;9.48;1.85;;;7.20;99.90;;;;;;5119125;27;20039;-79
2022/04/05 06:43:13;;;;;;;13.68;1.63;;;7.20;99.90;;;;;;5114456;27;20096;-79
2022/04/05 06:45:38;;;;;;;10.77;1.98;;;7.30;99.90;;;;;;5103338;27;20111;-79
2022/04/05 06:48:06;;;;;;;15.20;2.45;;;7.40;99.90;;;;;;5106165;27;20047;-78
2022/04/05 06:50:36;;;;;;;11.82;1.98;;;7.40;99.90;;;;;;5110958;27;20091;-79
2022/04/05 06:53:03;;;;;;;13.32;2.38;;;7.40;99.90;;;;;;5118260;27;20046;-79
2022/04/05 06:55:29;;;;;;;11.02;1.83;;;7.50;99.90;;;;;;5116425;27;20082;-78
2022/04/05 06:57:55;;;;;;;13.10;2.30;;;7.60;99.90;;;;;;5111591;27;20077;-80
2022/04/05 07:00:25;;;;;;;10.45;2.22;;;7.80;99.90;;;;;;5113458;27;20043;-79
2022/04/05 07:02:52;;;;;;;11.80;2.03;;;7.90;99.90;;;;;;5116238;27;20087;-79
2022/04/05 07:05:19;;;;;;;13.77;2.53;;;8.00;99.90;;;;;;5096081;27;20463;-79
2022/04/05 07:07:45;;;;;;;10.80;3.33;;;8.00;99.90;;;;;;5098938;27;20023;-79
2022/04/05 07:10:14;;;;;;;9.35;2.20;;;8.10;99.90;;;;;;5113303;27;20085;-78
2022/04/05 07:12:40;;;;;;;11.23;2.25;;;8.10;99.90;;;;;;5111928;27;20043;-79
2022/04/05 07:15:07;;;;;;;9.90;2.13;;;8.10;99.90;;;;;;5118420;27;20045;-78
2022/04/05 07:17:33;;;;;;;8.93;1.92;;;8.20;99.90;;;;;;5110586;27;20079;-78
2022/04/05 07:19:59;;;;;;;12.48;2.47;;;8.10;99.90;;;;;;5105379;28;20031;-78
2022/04/05 07:22:26;;;;;;;10.55;2.13;;;8.20;99.90;;;;;;5115403;27;20112;-79
2022/04/05 07:24:52;;;;;;;10.43;2.22;;;8.10;99.90;;;;;;5115566;27;20047;-79
2022/04/05 07:27:18;;;;;;;11.57;2.38;;;8.10;99.90;;;;;;5103059;27;20070;-79
2022/04/05 07:29:44;;;;;;;11.10;2.28;;;8.10;99.90;;;;;;5112990;27;20119;-79
2022/04/05 07:32:09;;;;;;;10.98;2.40;;;8.00;99.90;;;;;;5116606;27;20062;-79
2022/04/05 07:34:35;;;;;;;11.50;2.27;;;8.00;99.90;;;;;;5112186;27;20031;-79
2022/04/05 07:37:01;;;;;;;8.25;2.60;;;8.00;99.90;;;;;;5119607;27;20273;-78
2022/04/05 07:39:26;;;;;;;12.20;2.53;;;8.00;99.90;;;;;;5104778;28;20054;-78
2022/04/05 07:41:53;;;;;;;13.10;2.23;;;7.90;99.90;;;;;;5111913;27;20298;-78
2022/04/05 07:44:18;;;;;;;14.82;2.72;;;7.90;99.90;;;;;;5106702;28;20284;-79
2022/04/05 07:46:45;;;;;;;7.22;2.35;;;7.80;99.90;;;;;;5107278;28;20691;-79
2022/04/05 07:49:11;;;;;;;8.77;2.33;;;7.80;99.90;;;;;;5111662;28;20486;-79
2022/04/05 07:51:36;;;;;;;9.77;2.33;;;7.80;99.90;;;;;;5101324;28;20051;-79
2022/04/05 07:54:04;;;;;;;11.68;2.25;;;7.80;99.90;;;;;;5113409;27;20050;-78
2022/04/05 07:56:30;;;;;;;8.75;1.90;;;7.70;99.90;;;;;;5112835;27;20490;-78
2022/04/05 07:58:55;;;;;;;11.75;2.45;;;7.70;99.90;;;;;;5112331;28;20050;-79
2022/04/05 08:01:21;;;;;;;12.57;2.92;;;7.70;99.90;;;;;;5098885;28;20035;-78
2022/04/05 08:03:47;;;;;;;11.82;2.47;;;7.70;99.90;;;;;;5118177;27;20123;-78
2022/04/05 08:06:13;;;;;;;7.85;2.90;;;7.70;99.90;;;;;;5115117;28;20043;-79
2022/04/05 08:08:38;;;;;;;10.15;2.15;;;7.70;99.90;;;;;;5118324;28;20043;-79
2022/04/05 08:11:04;;;;;;;9.80;2.80;;;7.70;99.90;;;;;;5094746;28;20138;-79
2022/04/05 08:13:30;;;;;;;7.78;2.30;;;7.70;99.90;;;;;;5096345;28;20100;-78
2022/04/05 08:15:56;;;;;;;9.90;2.40;;;7.60;99.90;;;;;;5114942;27;20039;-79
2022/04/05 08:18:22;;;;;;;11.45;2.70;;;7.60;99.90;;;;;;5121269;27;20096;-79
2022/04/05 08:20:48;;;;;;;8.18;2.30;;;7.60;99.90;;;;;;5101745;28;20494;-79
2022/04/05 08:23:14;;;;;;;11.57;2.40;;;7.60;99.90;;;;;;5114002;28;20044;-80
2022/04/05 08:25:40;;;;;;;10.65;2.90;;;7.70;99.90;;;;;;5099578;28;20387;-78
2022/04/05 08:28:06;;;;;;;8.55;2.17;;;7.70;99.90;;;;;;5110174;28;20031;-79
2022/04/05 08:30:32;;;;;;;8.63;3.20;;;7.80;99.90;;;;;;5119137;28;20115;-79
2022/04/05 08:32:59;;;;;;;12.75;2.85;;;7.80;99.90;;;;;;5113593;28;20106;-79
2022/04/05 08:35:25;;;;;;;11.60;2.97;;;7.90;99.90;;;;;;5122139;27;20490;-78
2022/04/05 08:37:54;;;;;;;10.63;2.30;;;8.00;99.90;;;;;;5112170;28;20067;-78
2022/04/05 08:40:22;;;;;;;8.88;2.30;;;8.20;99.90;;;;;;5116416;27;20040;-79
2022/04/05 08:42:55;;;;;;;9.25;2.40;;;8.20;99.90;;;;;;5105871;27;20472;-78
2022/04/05 08:45:22;;;;;;;10.65;2.42;;;8.40;99.90;;;;;;5114960;27;20114;-79
2022/04/05 08:47:55;;;;;;;8.55;2.15;;;8.50;99.90;;;;;;5098792;28;20032;-79
2022/04/05 08:50:30;;;;;;;8.48;2.10;;;8.60;99.90;;;;;;5126860;27;20043;-79
2022/04/05 08:52:59;;;;;;;8.95;2.03;;;8.60;99.90;;;;;;5124809;27;20047;-78
2022/04/05 08:55:26;;;;;;;7.00;1.77;;;8.70;99.90;;;;;;5123144;27;20415;-79
2022/04/05 08:57:51;;;;;;;6.88;1.95;;;8.80;99.90;;;;;;5104960;28;20039;-78
2022/04/05 09:00:19;;;;;;;7.60;2.03;;;8.90;99.90;;;;;;5126561;27;20046;-79
2022/04/05 09:02:57;;;;;;;6.30;1.85;;;8.90;99.90;;;;;;5126878;27;20039;-77
2022/04/05 09:05:34;;;;;;;5.90;1.83;;;9.00;99.90;;;;;;5119120;27;20046;-78
2022/04/05 09:08:15;;;;;;;;;;;9.00;99.90;;;;;;5132074;27;20466;-78
2022/04/05 09:10:42;;;;;;;3.85;1.52;;;9.00;99.90;;;;;;5105359;28;20367;-78
2022/04/05 09:13:12;;;;;;;6.18;2.05;;;9.20;99.90;;;;;;5128980;27;20079;-78
2022/04/05 09:15:41;;;;;;;7.00;1.20;;;9.20;99.90;;;;;;5092359;28;20077;-78
2022/04/05 09:18:06;;;;;;;3.72;1.50;;;9.10;99.90;;;;;;5123702;27;20039;-79
2022/04/05 09:20:44;;;;;;;6.93;1.42;;;9.10;99.90;;;;;;5130529;27;20088;-78
2022/04/05 09:23:33;;;;;;;3.90;1.40;;;9.10;99.90;;;;;;5120111;27;20062;-78
2022/04/05 09:26:13;;;;;;;6.15;1.50;;;9.10;99.90;;;;;;5112925;27;20075;-79
2022/04/05 09:28:41;;;;;;;3.83;1.65;;;9.10;99.90;;;;;;5130390;27;20027;-78
2022/04/05 09:31:10;;;;;;;6.35;1.35;;;9.30;99.90;;;;;;5125797;27;20034;-79
2022/04/05 09:33:38;;;;;;;6.13;1.50;;;9.30;99.90;;;;;;5114726;27;20040;-79
2022/04/05 09:36:11;;;;;;;5.25;1.48;;;9.30;99.90;;;;;;5123409;27;20031;-79
2022/04/05 09:38:39;;;;;;;3.42;1.60;;;9.30;99.90;;;;;;5122313;27;20043;-79
2022/04/05 09:41:19;;;;;;;5.40;1.60;;;9.40;99.90;;;;;;5119926;27;20039;-79
2022/04/05 09:43:56;;;;;;;6.28;1.90;;;9.30;99.90;;;;;;5123361;27;20129;-78
2022/04/05 09:46:23;;;;;;;5.03;1.50;;;9.30;99.90;;;;;;5126622;27;20043;-79
2022/04/05 09:49:06;;;;;;;8.55;2.05;;;9.20;99.90;;;;;;5102887;27;20042;-79
2022/04/05 09:51:50;;;;;;;6.22;1.73;;;9.10;99.90;;;;;;5126927;27;20486;-79
2022/04/05 09:54:27;;;;;;;7.28;2.10;;;9.10;99.90;;;;;;5101013;28;20459;-79
2022/04/05 09:57:13;;;;;;;5.35;2.20;;;9.10;99.90;;;;;;5105079;28;20042;-78
2022/04/05 09:59:46;;;;;;;7.93;2.47;;;9.00;99.90;;;;;;5115755;27;20390;-79
2022/04/05 10:02:17;;;;;;;6.55;2.15;;;9.00;99.90;;;;;;5129952;27;20502;-79
2022/04/05 10:05:06;;;;;;;5.22;1.73;;;9.00;99.90;;;;;;5111587;27;20566;-78
2022/04/05 10:07:33;;;;;;;4.28;1.90;;;9.20;99.90;;;;;;5126166;27;20046;-79
2022/04/05 10:10:00;;;;;;;5.13;1.55;;;9.10;99.90;;;;;;5125155;27;20363;-78
2022/04/05 10:12:27;;;;;;;5.93;2.10;;;9.20;99.90;;;;;;5092902;28;20106;-79
2022/04/05 10:14:53;;;;;;;3.03;1.50;;;9.20;99.90;;;;;;5110981;27;20100;-79
2022/04/05 10:17:22;;;;;;;4.38;1.50;;;9.20;99.90;;;;;;5123892;27;20035;-79
2022/04/05 10:19:50;;;;;;;4.05;1.85;;;9.20;99.90;;;;;;5126810;27;20031;-80
2022/04/05 10:22:17;;;;;;;4.35;1.40;;;9.20;99.90;;;;;;5126562;27;20451;-79
2022/04/05 10:24:45;;;;;;;3.10;1.42;;;9.30;99.90;;;;;;5125425;27;20087;-80
2022/04/05 10:27:11;;;;;;;4.60;1.40;;;9.30;99.90;;;;;;5115419;27;20036;-81
2022/04/05 10:29:37;;;;;;;2.13;1.38;;;9.20;99.90;;;;;;5109164;27;20039;-80
2022/04/05 10:32:18;;;;;;;4.50;1.50;;;9.10;99.90;;;;;;5125080;27;20123;-80
2022/04/05 10:34:53;;;;;;;3.42;1.50;;;9.20;99.90;;;;;;5108611;27;20035;-80
2022/04/05 10:37:33;;;;;;;2.80;1.13;;;9.20;99.90;;;;;;5111426;27;20479;-80
2022/04/05 10:39:59;;;;;;;2.60;1.20;;;9.20;99.90;;;;;;5124119;27;20118;-80
2022/04/05 10:42:32;;;;;;;2.40;1.30;;;9.30;99.90;;;;;;5098673;28;20035;-79
2022/04/05 10:45:12;;;;;;;3.08;1.00;;;9.30;99.90;;;;;;5113472;27;20039;-80
2022/04/05 10:48:12;;;;;;;3.22;1.30;;;9.40;99.90;;;;;;5108236;28;20118;-80
2022/04/05 10:50:42;;;;;;;2.45;1.02;;;9.50;99.90;;;;;;5115091;27;20096;-80
2022/04/05 10:53:17;;;;;;;1.88;1.13;;;9.50;99.90;;;;;;5095096;28;20035;-80
2022/04/05 10:56:06;;;;;;;2.15;1.08;;;9.40;99.90;;;;;;5116471;27;20387;-79
2022/04/05 10:58:35;;;;;;;2.33;1.20;;;9.50;99.90;;;;;;5118256;27;20039;-79
2022/04/05 11:01:13;;;;;;;2.58;1.10;;;9.60;99.90;;;;;;5119760;27;20480;-79
2022/04/05 11:03:40;;;;;;;2.63;1.10;;;9.80;99.90;;;;;;5109929;27;20044;-79
2022/04/05 11:06:06;;;;;;;2.20;1.02;;;9.90;99.90;;;;;;5111102;27;20071;-78
2022/04/05 11:08:32;;;;;;;2.28;1.23;;;9.90;99.90;;;;;;5110393;27;20071;-80
2022/04/05 11:11:04;;;;;;;3.75;1.35;;;9.90;99.90;;;;;;5115922;27;20433;-79
2022/04/05 11:13:44;;;;;;;1.40;1.20;;;9.90;99.90;;;;;;5123503;27;20041;-79
2022/04/05 11:16:13;;;;;;;2.22;1.50;;;9.90;99.90;;;;;;5115224;27;20047;-79
2022/04/05 11:18:41;;;;;;;3.33;1.40;;;9.90;99.90;;;;;;5120446;27;20043;-79
2022/04/05 11:21:09;;;;;;;2.55;1.30;;;9.90;99.90;;;;;;5118696;27;20067;-79
2022/04/05 11:23:53;;;;;;;2.13;1.40;;;10.20;99.90;;;;;;5099515;27;20427;-79
2022/04/05 11:26:33;;;;;;;1.48;1.20;;;10.40;99.90;;;;;;5121947;27;20553;-79
2022/04/05 11:29:01;;;;;;;1.77;1.10;;;10.60;99.90;;;;;;5118025;27;20367;-79
2022/04/05 11:31:39;;;;;;;1.08;0.80;;;11.00;99.90;;;;;;5122724;27;20054;-79
2022/04/05 11:34:37;;;;;;;2.85;1.00;;;11.30;99.90;;;;;;5091325;28;20039;-78
2022/04/05 11:37:04;;;;;;;2.25;0.80;;;11.40;99.90;;;;;;5103079;28;20168;-79
2022/04/05 11:39:35;;;;;;;1.33;1.10;;;11.30;99.90;;;;;;5119308;27;20039;-79
2022/04/05 11:42:01;;;;;;;2.60;0.88;;;11.20;99.90;;;;;;5126907;27;20047;-79
2022/04/05 11:44:27;;;;;;;1.40;0.90;;;11.10;99.90;;;;;;5111110;28;20403;-79
2022/04/05 11:46:59;;;;;;;2.33;1.00;;;11.00;99.90;;;;;;5113512;28;20066;-79
2022/04/05 11:49:25;;;;;;;2.05;1.30;;;11.00;99.90;;;;;;5091017;28;20043;-79
2022/04/05 11:51:51;;;;;;;3.35;1.83;;;11.00;99.90;;;;;;5118160;28;20035;-78
2022/04/05 11:54:27;;;;;;;1.73;1.10;;;11.00;99.90;;;;;;5119233;27;20036;-79
2022/04/05 11:57:02;;;;;;;1.80;1.30;;;10.90;99.90;;;;;;5114708;28;20494;-79
2022/04/05 11:59:28;;;;;;;2.03;0.90;;;10.90;99.90;;;;;;5119072;28;20044;-79
2022/04/05 12:01:54;;;;;;;1.73;0.93;;;10.80;99.90;;;;;;5120379;28;20048;-80
2022/04/05 12:04:22;;;;;;;1.40;1.10;;;10.80;99.90;;;;;;5110693;28;20043;-79
2022/04/05 12:06:53;;;;;;;1.20;1.00;;;10.80;99.90;;;;;;5097916;27;20043;-79
2022/04/05 12:09:21;;;;;;;1.98;1.30;;;10.90;99.90;;;;;;5128176;27;20561;-79
2022/04/05 12:11:51;;;;;;;1.63;1.02;;;10.90;99.90;;;;;;5118927;28;20043;-80
2022/04/05 12:14:25;;;;;;;1.83;1.10;;;11.00;99.90;;;;;;5116087;27;20046;-79
2022/04/05 12:16:51;;;;;;;1.85;1.30;;;11.00;99.90;;;;;;5121129;27;20039;-80
2022/04/05 12:19:19;;;;;;;2.22;1.27;;;11.10;99.90;;;;;;5122081;27;20039;-79
2022/04/05 12:21:44;;;;;;;2.38;1.27;;;11.20;99.90;;;;;;5120948;27;20094;-79
2022/04/05 12:24:10;;;;;;;1.67;1.20;;;11.20;99.90;;;;;;5121242;27;20079;-79
2022/04/05 12:26:36;;;;;;;2.10;1.35;;;11.20;99.90;;;;;;5120921;27;20596;-79
2022/04/05 12:29:02;;;;;;;1.83;1.15;;;11.30;99.90;;;;;;5114415;27;20047;-79
2022/04/05 12:31:30;;;;;;;1.92;1.00;;;11.30;99.90;;;;;;5124270;27;20039;-78
2022/04/05 12:34:13;;;;;;;2.15;1.23;;;11.40;99.90;;;;;;5118032;27;20368;-78
2022/04/05 12:36:43;;;;;;;1.60;1.30;;;11.60;99.90;;;;;;5130220;27;21093;-79
2022/04/05 12:39:21;;;;;;;2.33;1.52;;;11.70;99.90;;;;;;5110757;27;20061;-79
2022/04/05 12:41:48;;;;;;;2.15;1.70;;;11.80;99.90;;;;;;5124591;27;20039;-78
2022/04/05 12:44:21;;;;;;;2.00;1.40;;;11.60;99.90;;;;;;5119713;27;20071;-79
2022/04/05 12:46:50;;;;;;;2.72;1.50;;;11.60;99.90;;;;;;5108297;28;20042;-80
2022/04/05 12:49:19;;;;;;;2.50;1.80;;;11.60;99.90;;;;;;5119773;27;20038;-80
2022/04/05 12:51:45;;;;;;;2.47;1.63;;;11.50;99.90;;;;;;5121405;27;20055;-80
2022/04/05 12:54:31;;;;;;;;;;;11.40;99.90;;;;;;5127126;27;20042;-80
2022/04/05 12:57:24;;;;;;;2.58;1.70;;;11.30;99.90;;;;;;5116163;27;19916;-80